Time;durP1;ratioP1;P1;durP2;ratioP2;P2;SDS_P1;SDS_P2;PMS_P1;PMS_P2;Temp;Humidity;BMP_temperature;BMP_pressure;BME280_temperature;BME280_humidity;BME280_pressure;Samples;Min_cycle;Max_cycle;Signal;HPM_P1;HPM_P2
2022/02/06 00:00:09;;;;;;;19.42;3.15;;;7.80;99.90;;;;;;5002804;28;20084;-67
2022/02/06 00:02:37;;;;;;;22.13;3.10;;;7.80;99.90;;;;;;5001471;28;20073;-68
2022/02/06 00:05:04;;;;;;;18.83;3.03;;;7.90;99.90;;;;;;5001776;28;20426;-67
2022/02/06 00:07:30;;;;;;;26.23;3.25;;;7.90;99.90;;;;;;5001220;28;20097;-67
2022/02/06 00:09:56;;;;;;;17.48;1.80;;;7.80;99.90;;;;;;5002739;28;20490;-67
2022/02/06 00:12:22;;;;;;;18.85;3.15;;;7.90;99.90;;;;;;5000091;28;20124;-67
2022/02/06 00:14:47;;;;;;;30.23;3.65;;;7.80;99.90;;;;;;4996862;28;20038;-67
2022/02/06 00:17:13;;;;;;;17.08;2.20;;;7.90;99.90;;;;;;5001979;28;20034;-67
2022/02/06 00:19:42;;;;;;;12.90;2.33;;;7.90;99.90;;;;;;5001338;28;20040;-68
2022/02/06 00:22:10;;;;;;;15.10;2.15;;;7.90;99.90;;;;;;5001849;28;20034;-68
2022/02/06 00:24:54;;;;;;;16.17;2.55;;;7.90;99.90;;;;;;5000453;28;20486;-68
2022/02/06 00:27:36;;;;;;;15.50;2.78;;;7.90;99.90;;;;;;4995192;28;20041;-67
2022/02/06 00:30:30;;;;;;;22.25;2.15;;;7.90;99.90;;;;;;4998518;28;20038;-68
2022/02/06 00:32:55;;;;;;;19.58;2.90;;;7.80;99.90;;;;;;4998856;28;20443;-66
2022/02/06 00:43:14;;;;;;;14.20;2.13;;;7.90;99.90;;;;;;5000890;28;20072;-67
2022/02/06 00:45:39;;;;;;;25.23;3.80;;;7.90;99.90;;;;;;5001601;28;20042;-67
2022/02/06 00:48:05;;;;;;;21.98;2.78;;;7.90;99.90;;;;;;5000370;28;20080;-67
2022/02/06 00:50:34;;;;;;;14.93;2.38;;;8.00;99.90;;;;;;5000473;28;20030;-67
2022/02/06 00:53:06;;;;;;;23.70;2.90;;;8.00;99.90;;;;;;5000530;28;20042;-67
2022/02/06 00:55:32;;;;;;;29.33;5.00;;;8.00;99.90;;;;;;5000430;28;20045;-66
2022/02/06 00:57:58;;;;;;;19.20;2.15;;;8.10;99.90;;;;;;5002211;28;20033;-66
2022/02/06 01:00:24;;;;;;;23.77;3.45;;;8.10;99.90;;;;;;4999527;28;20023;-66
2022/02/06 01:02:53;;;;;;;18.20;2.70;;;8.10;99.90;;;;;;5001146;28;20049;-67
2022/02/06 01:05:19;;;;;;;26.00;3.63;;;8.20;99.90;;;;;;4995684;28;20126;-65
2022/02/06 01:07:44;;;;;;;18.83;2.72;;;8.20;99.90;;;;;;5002139;28;20073;-66
2022/02/06 01:10:11;;;;;;;22.98;2.50;;;8.20;99.90;;;;;;4999290;28;20072;-67
2022/02/06 01:12:40;;;;;;;14.85;2.28;;;8.20;99.90;;;;;;5000530;28;20061;-67
2022/02/06 01:15:12;;;;;;;26.40;2.10;;;8.20;99.90;;;;;;5001246;28;20465;-67
2022/02/06 01:17:44;;;;;;;22.95;3.40;;;8.20;99.90;;;;;;5001972;28;20038;-67
2022/02/06 01:20:28;;;;;;;21.98;2.97;;;8.20;99.90;;;;;;4999937;28;20034;-67
2022/02/06 01:23:03;;;;;;;30.55;3.30;;;8.20;99.90;;;;;;4996097;28;20101;-66
2022/02/06 01:25:35;;;;;;;21.52;2.75;;;8.20;99.90;;;;;;4996361;28;20034;-68
2022/02/06 01:28:08;;;;;;;32.42;5.30;;;8.20;99.90;;;;;;4999667;28;20034;-66
2022/02/06 01:30:46;;;;;;;22.48;3.00;;;8.20;99.90;;;;;;5000468;28;20118;-68
2022/02/06 01:33:17;;;;;;;42.28;4.32;;;8.30;99.90;;;;;;4998230;28;20058;-67
2022/02/06 01:35:59;;;;;;;31.02;4.88;;;8.20;99.90;;;;;;5000460;28;20096;-66
2022/02/06 01:38:35;;;;;;;24.38;2.67;;;8.30;99.90;;;;;;4997020;28;20033;-66
2022/02/06 01:41:06;;;;;;;31.00;3.97;;;8.30;99.90;;;;;;4999408;28;20132;-67
2022/02/06 01:43:40;;;;;;;22.98;2.30;;;8.30;99.90;;;;;;5002996;28;20037;-67
2022/02/06 02:05:35;;;;;;;31.13;3.17;;;8.30;99.90;;;;;;5001347;28;20153;-67
2022/02/06 02:29:02;;;;;;;24.83;4.32;;;8.40;99.90;;;;;;4998524;28;20026;-66
2022/02/06 02:47:19;;;;;;;15.85;4.15;;;8.40;99.90;;;;;;4994446;28;20096;-66
2022/02/06 02:50:12;;;;;;;22.58;3.60;;;8.40;99.90;;;;;;4994468;28;20057;-66
2022/02/06 02:52:49;;;;;;;32.97;3.17;;;8.40;99.90;;;;;;4998686;28;20114;-67
2022/02/06 02:55:47;;;;;;;23.40;3.60;;;8.40;99.90;;;;;;4993960;28;20076;-66
2022/02/06 03:03:20;;;;;;;24.92;3.53;;;8.40;99.90;;;;;;4998335;28;20281;-67
2022/02/06 03:05:49;;;;;;;29.17;3.08;;;8.40;99.90;;;;;;4995720;28;20494;-67
2022/02/06 03:08:15;;;;;;;25.48;3.75;;;8.40;99.90;;;;;;5004379;28;20041;-67
2022/02/06 03:10:42;;;;;;;20.95;3.15;;;8.40;99.90;;;;;;4996557;28;20391;-64
2022/02/06 03:13:10;;;;;;;20.45;2.50;;;8.40;99.90;;;;;;5004109;28;20044;-67
2022/02/06 03:18:02;;;;;;;30.50;3.85;;;8.40;99.90;;;;;;5004086;28;20037;-67
2022/02/06 03:20:29;;;;;;;24.92;3.22;;;8.40;99.90;;;;;;5000732;28;20061;-67
2022/02/06 03:22:59;;;;;;;16.73;2.20;;;8.40;99.90;;;;;;5001139;28;20046;-66
2022/02/06 03:25:25;;;;;;;25.05;2.33;;;8.40;99.90;;;;;;5002766;28;20072;-67
2022/02/06 03:27:53;;;;;;;17.50;2.92;;;8.40;99.90;;;;;;5000476;28;20054;-67
2022/02/06 03:30:20;;;;;;;18.80;3.33;;;8.40;99.90;;;;;;5004411;28;20121;-66
2022/02/06 03:32:46;;;;;;;16.13;3.05;;;8.40;99.90;;;;;;5003577;28;20045;-66
2022/02/06 03:35:12;;;;;;;17.35;3.03;;;8.40;99.90;;;;;;5001265;28;20057;-67
2022/02/06 03:37:40;;;;;;;18.38;2.30;;;8.40;99.90;;;;;;5004016;28;20054;-67
2022/02/06 03:40:08;;;;;;;13.77;1.92;;;8.40;99.90;;;;;;5000721;28;20058;-67
2022/02/06 03:42:52;;;;;;;26.17;2.63;;;8.30;99.90;;;;;;5005072;28;20088;-67
2022/02/06 03:45:20;;;;;;;29.85;3.30;;;8.40;99.90;;;;;;4998626;28;20063;-67
2022/02/06 03:47:56;;;;;;;23.60;3.03;;;8.40;99.90;;;;;;5002353;28;20065;-67
2022/02/06 03:50:31;;;;;;;24.60;3.75;;;8.40;99.90;;;;;;5000687;28;20045;-66
2022/02/06 03:52:57;;;;;;;28.15;3.45;;;8.40;99.90;;;;;;5001042;28;20034;-67
2022/02/06 03:55:23;;;;;;;20.75;3.38;;;8.40;99.90;;;;;;5000609;28;20081;-67
2022/02/06 03:57:51;;;;;;;22.20;3.35;;;8.40;99.90;;;;;;5003564;28;20069;-66
2022/02/06 04:00:20;;;;;;;27.80;3.67;;;8.40;99.90;;;;;;5000956;28;20039;-67
2022/02/06 04:02:46;;;;;;;24.23;3.40;;;8.50;99.90;;;;;;5003679;28;20248;-67
2022/02/06 04:05:18;;;;;;;19.27;3.60;;;8.50;99.90;;;;;;5000607;28;20030;-67
2022/02/06 04:07:44;;;;;;;33.10;3.00;;;8.40;99.90;;;;;;4996137;28;20065;-67
2022/02/06 04:10:12;;;;;;;31.10;2.97;;;8.50;99.90;;;;;;5001694;28;20034;-67
2022/02/06 04:12:40;;;;;;;21.30;4.05;;;8.50;99.90;;;;;;4996595;28;20034;-67
2022/02/06 04:15:12;;;;;;;23.17;3.25;;;8.50;99.90;;;;;;5003756;28;20084;-67
2022/02/06 04:17:46;;;;;;;26.50;3.33;;;8.50;99.90;;;;;;4996539;28;20037;-68
2022/02/06 04:20:12;;;;;;;29.95;3.05;;;8.50;99.90;;;;;;4995584;28;20065;-67
2022/02/06 04:22:37;;;;;;;23.95;4.03;;;8.50;99.90;;;;;;5001456;28;20034;-68
2022/02/06 04:25:04;;;;;;;24.60;2.22;;;8.50;99.90;;;;;;5000504;28;20038;-68
2022/02/06 04:27:30;;;;;;;18.80;4.15;;;8.60;99.90;;;;;;5002419;28;20072;-67
2022/02/06 04:29:56;;;;;;;25.00;4.05;;;8.60;99.90;;;;;;4999208;28;20034;-67
2022/02/06 04:32:22;;;;;;;38.08;4.22;;;8.70;99.90;;;;;;5000360;28;20069;-67
2022/02/06 04:34:50;;;;;;;31.33;4.40;;;8.60;99.90;;;;;;5000090;28;20042;-67
2022/02/06 04:37:27;;;;;;;30.30;3.55;;;8.70;99.90;;;;;;5002667;28;20148;-67
2022/02/06 04:40:07;;;;;;;24.50;4.18;;;8.70;99.90;;;;;;4999383;28;20057;-67
2022/02/06 04:48:22;;;;;;;23.45;4.65;;;8.80;99.90;;;;;;4999215;28;20561;-67
2022/02/06 05:30:15;;;;;;;24.83;4.03;;;8.90;99.90;;;;;;4984098;28;20188;-62
2022/02/06 05:33:14;;;;;;;22.93;3.60;;;8.90;99.90;;;;;;4989408;28;20034;-62
2022/02/06 05:35:35;;;;;;;31.50;4.35;;;8.90;99.90;;;;;;4983984;28;20286;-63
2022/02/06 05:38:01;;;;;;;24.60;4.35;;;8.90;99.90;;;;;;4988760;28;20038;-63
2022/02/06 05:40:27;;;;;;;16.55;3.03;;;8.90;99.90;;;;;;4989085;28;20458;-63
2022/02/06 05:42:52;;;;;;;22.55;3.15;;;8.90;99.90;;;;;;4989297;28;20038;-64
2022/02/06 05:45:20;;;;;;;18.58;2.75;;;8.90;99.90;;;;;;4990516;28;20042;-63
2022/02/06 05:47:46;;;;;;;17.20;3.75;;;8.90;99.90;;;;;;4988395;28;20027;-63
2022/02/06 05:50:16;;;;;;;29.30;3.03;;;8.90;99.90;;;;;;4989544;28;20058;-65
2022/02/06 05:52:42;;;;;;;29.55;4.68;;;8.90;99.90;;;;;;4989287;28;20038;-63
2022/02/06 05:55:09;;;;;;;15.45;3.60;;;8.90;99.90;;;;;;4988599;28;20034;-63
2022/02/06 05:57:35;;;;;;;23.63;4.40;;;8.90;99.90;;;;;;4989655;28;20038;-63
2022/02/06 06:00:03;;;;;;;23.92;3.00;;;8.90;99.90;;;;;;4981870;28;20081;-63
2022/02/06 06:02:28;;;;;;;19.15;2.63;;;8.80;99.90;;;;;;4990029;28;20440;-63
2022/02/06 06:04:54;;;;;;;23.42;2.90;;;8.80;99.90;;;;;;4989681;28;20070;-63
2022/02/06 06:07:20;;;;;;;17.05;3.15;;;8.80;99.90;;;;;;4989974;28;20034;-63
2022/02/06 06:09:46;;;;;;;23.95;3.78;;;8.80;99.90;;;;;;4989024;28;20038;-62
2022/02/06 06:12:11;;;;;;;13.43;3.30;;;8.80;99.90;;;;;;4989135;28;20035;-63
2022/02/06 06:14:39;;;;;;;22.75;2.50;;;8.80;99.90;;;;;;4987242;28;20418;-63
2022/02/06 06:17:05;;;;;;;23.58;3.10;;;8.80;99.90;;;;;;4989702;28;20045;-63
2022/02/06 06:19:31;;;;;;;27.30;4.50;;;8.80;99.90;;;;;;4989764;28;20030;-63
2022/02/06 06:21:59;;;;;;;18.83;3.88;;;8.80;99.90;;;;;;4988796;28;20085;-63
2022/02/06 06:24:26;;;;;;;27.65;3.88;;;8.80;99.90;;;;;;4988218;28;20043;-63
2022/02/06 06:26:53;;;;;;;16.08;2.65;;;8.80;99.90;;;;;;4988879;28;20749;-63
2022/02/06 06:29:19;;;;;;;24.65;3.60;;;8.80;99.90;;;;;;4987925;28;20041;-63
2022/02/06 06:31:45;;;;;;;16.92;2.95;;;8.80;99.90;;;;;;4989069;28;20066;-62
2022/02/06 06:34:11;;;;;;;19.35;2.47;;;8.80;99.90;;;;;;4993225;28;20444;-62
2022/02/06 06:36:36;;;;;;;19.25;3.30;;;8.80;99.90;;;;;;4992621;28;20058;-63
2022/02/06 06:39:06;;;;;;;23.40;3.70;;;8.80;99.90;;;;;;4993375;28;20030;-63
2022/02/06 06:41:32;;;;;;;21.75;3.35;;;8.80;99.90;;;;;;4991016;28;20399;-63
2022/02/06 06:43:58;;;;;;;24.73;3.67;;;8.80;99.90;;;;;;4992576;28;20026;-62
2022/02/06 06:46:24;;;;;;;20.20;2.35;;;8.80;99.90;;;;;;4991660;28;20085;-62
2022/02/06 06:48:49;;;;;;;24.38;3.25;;;8.70;99.90;;;;;;4992545;28;20066;-63
2022/02/06 06:51:15;;;;;;;25.70;3.13;;;8.80;99.90;;;;;;4991311;28;20512;-64
2022/02/06 06:53:46;;;;;;;22.88;4.18;;;8.80;99.90;;;;;;4991140;28;20070;-63
2022/02/06 06:56:23;;;;;;;22.83;3.63;;;8.80;99.90;;;;;;4992764;28;20372;-63
2022/02/06 06:58:51;;;;;;;14.60;2.40;;;8.80;99.90;;;;;;4992255;28;20402;-62
2022/02/06 07:03:45;;;;;;;18.33;3.22;;;8.90;99.90;;;;;;4992424;28;20100;-62
2022/02/06 07:06:11;;;;;;;27.00;3.25;;;8.80;99.90;;;;;;4992620;28;20125;-63
2022/02/06 07:08:36;;;;;;;15.95;3.10;;;8.90;99.90;;;;;;4991989;28;20038;-63
2022/02/06 07:11:02;;;;;;;23.92;3.25;;;8.80;99.90;;;;;;4991783;28;20070;-63
2022/02/06 07:13:27;;;;;;;28.10;3.80;;;8.90;99.90;;;;;;4992528;28;20038;-62
2022/02/06 07:15:53;;;;;;;14.05;2.85;;;8.80;99.90;;;;;;4992136;28;20042;-63
2022/02/06 07:18:19;;;;;;;21.95;4.07;;;8.80;99.90;;;;;;4992408;28;20038;-64
2022/02/06 07:20:46;;;;;;;29.23;3.92;;;8.90;99.90;;;;;;4991701;28;20164;-62
2022/02/06 07:23:13;;;;;;;15.32;3.75;;;8.80;99.90;;;;;;4991825;28;20056;-62
2022/02/06 07:25:40;;;;;;;36.55;4.07;;;8.80;99.90;;;;;;4991931;28;20528;-64
2022/02/06 07:28:14;;;;;;;29.85;3.97;;;8.80;99.90;;;;;;4992274;28;20060;-63
2022/02/06 07:30:40;;;;;;;19.90;3.20;;;8.80;99.90;;;;;;4991549;28;20027;-62
2022/02/06 07:33:05;;;;;;;17.88;2.50;;;8.80;99.90;;;;;;4990422;28;20049;-63
2022/02/06 07:35:31;;;;;;;28.58;3.05;;;8.80;99.90;;;;;;4992138;28;20030;-64
2022/02/06 07:37:58;;;;;;;27.50;3.25;;;8.80;99.90;;;;;;4991843;28;20046;-63
2022/02/06 07:40:24;;;;;;;21.25;2.90;;;8.80;99.90;;;;;;4991843;28;20485;-63
2022/02/06 07:42:50;;;;;;;29.13;3.38;;;8.70;99.90;;;;;;4989677;28;20038;-63
2022/02/06 07:45:15;;;;;;;24.52;3.63;;;8.80;99.90;;;;;;4990720;28;20042;-63
2022/02/06 07:47:44;;;;;;;22.60;5.20;;;8.80;99.90;;;;;;4991477;28;20447;-62
2022/02/06 07:50:12;;;;;;;27.55;3.35;;;8.80;99.90;;;;;;4991456;28;20444;-63
2022/02/06 07:52:38;;;;;;;39.65;5.13;;;8.80;99.90;;;;;;4991139;28;20517;-63
2022/02/06 07:55:06;;;;;;;24.88;3.95;;;8.70;99.90;;;;;;4980670;28;20574;-63
2022/02/06 07:57:32;;;;;;;30.30;4.60;;;8.80;99.90;;;;;;4978958;28;20410;-65
2022/02/06 07:59:58;;;;;;;28.08;3.50;;;8.70;99.90;;;;;;4977027;28;20038;-63
2022/02/06 08:02:24;;;;;;;31.52;3.50;;;8.80;99.90;;;;;;4985822;28;20458;-62
2022/02/06 08:04:50;;;;;;;35.20;3.58;;;8.70;99.90;;;;;;4972950;28;20081;-63
2022/02/06 08:07:16;;;;;;;26.13;3.42;;;8.70;99.90;;;;;;4974822;28;20035;-63
2022/02/06 08:12:25;;;;;;;21.88;2.90;;;8.70;99.90;;;;;;4991008;28;20066;-63
2022/02/06 08:14:56;;;;;;;24.63;3.15;;;8.70;99.90;;;;;;4976205;28;20054;-64
2022/02/06 08:17:25;;;;;;;16.25;2.15;;;8.70;99.90;;;;;;4980390;28;20034;-63
2022/02/06 08:19:51;;;;;;;16.92;3.22;;;8.80;99.90;;;;;;4982486;28;20058;-61
2022/02/06 08:22:17;;;;;;;27.50;3.55;;;8.80;99.90;;;;;;4979697;28;20031;-63
2022/02/06 08:24:43;;;;;;;32.50;3.30;;;8.80;99.90;;;;;;4981249;28;20156;-64
2022/02/06 08:27:09;;;;;;;29.67;2.38;;;8.70;99.90;;;;;;4980201;28;20053;-63
2022/02/06 08:29:37;;;;;;;14.20;3.47;;;8.80;99.90;;;;;;4979019;28;20380;-63
2022/02/06 08:32:05;;;;;;;16.42;2.03;;;8.80;99.90;;;;;;4980114;28;20046;-63
2022/02/06 08:34:31;;;;;;;14.85;2.35;;;8.80;99.90;;;;;;4979347;28;20469;-63
2022/02/06 08:36:59;;;;;;;15.45;2.97;;;8.70;99.90;;;;;;4986242;28;20058;-63
2022/02/06 08:39:25;;;;;;;18.52;2.35;;;8.80;99.90;;;;;;4991012;28;20104;-63
2022/02/06 08:41:50;;;;;;;11.90;1.85;;;8.80;99.90;;;;;;4989954;28;20089;-62
2022/02/06 08:44:16;;;;;;;16.63;2.25;;;8.80;99.90;;;;;;4990876;28;20034;-62
2022/02/06 08:46:42;;;;;;;10.23;1.60;;;8.80;99.90;;;;;;4989008;28;20050;-63
2022/02/06 08:49:07;;;;;;;20.08;2.13;;;8.80;99.90;;;;;;4989563;28;20027;-64
2022/02/06 08:51:33;;;;;;;18.80;2.53;;;8.70;99.90;;;;;;4990272;28;20453;-64
2022/02/06 08:53:58;;;;;;;19.08;2.75;;;8.70;99.90;;;;;;4988362;28;20070;-63
2022/02/06 08:56:27;;;;;;;20.38;3.60;;;8.70;99.90;;;;;;4980711;28;20035;-64
2022/02/06 08:58:53;;;;;;;17.88;1.83;;;8.70;99.90;;;;;;4984725;28;20800;-63
2022/02/06 09:01:18;;;;;;;12.10;1.92;;;8.80;99.90;;;;;;4988671;28;20034;-62
2022/02/06 09:03:44;;;;;;;14.07;1.63;;;8.80;99.90;;;;;;4988958;28;20092;-65
2022/02/06 09:06:11;;;;;;;16.85;2.45;;;8.80;99.90;;;;;;4988726;28;20120;-65
2022/02/06 09:08:37;;;;;;;13.05;2.13;;;8.80;99.90;;;;;;4990780;28;20030;-64
2022/02/06 09:11:03;;;;;;;15.25;1.25;;;8.80;99.90;;;;;;4989516;28;20046;-63
2022/02/06 09:13:30;;;;;;;8.27;1.20;;;8.80;99.90;;;;;;4982707;28;20046;-64
2022/02/06 09:15:55;;;;;;;24.17;2.92;;;8.80;99.90;;;;;;4989346;28;20038;-64
2022/02/06 09:18:21;;;;;;;9.35;1.42;;;8.80;99.90;;;;;;4989303;28;20459;-63
2022/02/06 09:20:47;;;;;;;13.05;2.17;;;8.80;99.90;;;;;;4988631;28;20053;-64
2022/02/06 09:23:13;;;;;;;11.60;2.20;;;8.80;99.90;;;;;;4988580;28;20034;-63
2022/02/06 09:25:38;;;;;;;14.55;1.58;;;8.80;99.90;;;;;;4989372;28;20666;-64
2022/02/06 09:28:04;;;;;;;16.88;2.20;;;8.80;99.90;;;;;;4988480;28;20034;-65
2022/02/06 09:30:30;;;;;;;10.07;1.58;;;8.80;99.90;;;;;;4989333;28;20034;-64
2022/02/06 09:35:23;;;;;;;17.23;2.30;;;8.80;99.90;;;;;;4989554;28;20396;-64
2022/02/06 09:37:49;;;;;;;15.77;2.15;;;8.80;99.90;;;;;;4988357;28;20494;-64
2022/02/06 09:40:16;;;;;;;12.48;0.95;;;8.90;99.90;;;;;;4987567;28;20038;-63
2022/02/06 09:42:45;;;;;;;10.38;2.05;;;8.80;99.90;;;;;;4988675;28;20535;-63
2022/02/06 09:45:11;;;;;;;14.77;2.47;;;8.80;99.90;;;;;;4989037;28;20043;-63
2022/02/06 09:47:37;;;;;;;10.57;1.40;;;8.90;99.90;;;;;;4987839;28;20042;-63
2022/02/06 09:50:04;;;;;;;8.38;1.70;;;8.90;99.90;;;;;;4986680;28;20483;-63
2022/02/06 09:52:30;;;;;;;10.15;1.88;;;8.90;99.90;;;;;;4984640;28;20041;-64
2022/02/06 09:55:06;;;;;;;11.88;1.20;;;8.90;99.90;;;;;;4976909;28;20122;-64
2022/02/06 09:57:50;;;;;;;13.38;1.88;;;8.80;99.90;;;;;;4988193;28;20491;-64
2022/02/06 10:00:16;;;;;;;10.82;1.90;;;8.80;99.90;;;;;;4987171;28;20519;-63
2022/02/06 10:02:47;;;;;;;11.40;1.70;;;8.80;99.90;;;;;;4988252;28;20046;-63
2022/02/06 10:05:14;;;;;;;13.52;1.38;;;8.80;99.90;;;;;;4983537;28;20489;-64
2022/02/06 10:07:44;;;;;;;13.02;1.60;;;8.80;99.90;;;;;;4984045;28;20057;-64
2022/02/06 10:10:12;;;;;;;10.77;1.40;;;8.90;99.90;;;;;;4985058;28;20030;-63
2022/02/06 10:12:40;;;;;;;6.40;1.20;;;8.90;99.90;;;;;;4990481;28;20579;-64
2022/02/06 10:15:10;;;;;;;7.15;1.00;;;8.90;99.90;;;;;;4992295;28;20022;-64
2022/02/06 10:17:36;;;;;;;6.10;1.45;;;8.90;99.90;;;;;;4991672;28;20027;-63
2022/02/06 10:20:15;;;;;;;10.18;1.27;;;8.90;99.90;;;;;;4987815;28;20106;-64
2022/02/06 10:22:50;;;;;;;11.35;2.60;;;8.90;99.90;;;;;;4986021;28;20120;-65
2022/02/06 10:25:16;;;;;;;10.38;2.05;;;9.00;99.90;;;;;;4985474;28;20554;-64
2022/02/06 10:28:08;;;;;;;10.40;2.22;;;8.90;99.90;;;;;;4991524;28;20034;-62
2022/02/06 10:30:41;;;;;;;8.50;1.55;;;8.90;99.90;;;;;;4987386;28;20085;-64
2022/02/06 10:33:11;;;;;;;9.82;1.63;;;8.90;99.90;;;;;;4983420;28;20125;-64
2022/02/06 10:35:39;;;;;;;8.68;2.75;;;9.00;99.90;;;;;;4983553;28;20170;-65
2022/02/06 10:38:15;;;;;;;19.33;2.53;;;9.00;99.90;;;;;;4980507;28;20041;-64
2022/02/06 10:40:41;;;;;;;15.70;3.60;;;9.00;99.90;;;;;;4978085;28;20142;-61
2022/02/06 10:43:10;;;;;;;12.02;1.52;;;9.00;99.90;;;;;;4976728;28;20047;-63
2022/02/06 10:45:37;;;;;;;10.30;2.55;;;9.00;99.90;;;;;;4979849;28;20031;-63
2022/02/06 10:48:16;;;;;;;10.48;1.50;;;9.00;99.90;;;;;;4979397;28;20082;-63
2022/02/06 10:50:42;;;;;;;11.20;2.30;;;9.00;99.90;;;;;;4976138;28;20710;-62
2022/02/06 10:53:12;;;;;;;10.82;1.40;;;9.00;99.90;;;;;;4978698;28;20042;-63
2022/02/06 10:55:53;;;;;;;12.82;1.80;;;9.00;99.90;;;;;;4980840;28;20038;-63
2022/02/06 10:58:18;;;;;;;11.75;2.08;;;9.00;99.90;;;;;;4977719;28;20203;-63
2022/02/06 11:00:44;;;;;;;17.63;2.70;;;9.10;99.90;;;;;;4976393;28;20034;-64
2022/02/06 11:03:36;;;;;;;23.40;1.90;;;9.10;99.90;;;;;;5009757;23;20095;-66
2022/02/06 11:06:07;;;;;;;16.17;2.20;;;9.10;99.90;;;;;;5022529;28;20033;-65
2022/02/06 11:08:34;;;;;;;13.48;2.45;;;9.10;99.90;;;;;;5025923;28;20462;-66
2022/02/06 11:11:03;;;;;;;11.80;1.58;;;9.20;99.90;;;;;;5032499;28;20025;-66
2022/02/06 11:13:29;;;;;;;10.50;0.90;;;9.20;99.90;;;;;;5029224;28;20497;-66
2022/02/06 11:15:57;;;;;;;7.45;0.60;;;9.20;99.90;;;;;;5028836;28;20102;-66
2022/02/06 11:18:27;;;;;;;0.85;0.35;;;8.70;99.90;;;;;;5029282;28;20121;-67
2022/02/06 11:21:07;;;;;;;0.00;0.00;;;7.90;99.90;;;;;;5028183;28;20043;-65
2022/02/06 11:23:39;;;;;;;0.00;0.00;;;7.30;99.90;;;;;;5029151;28;20091;-65
2022/02/06 11:26:17;;;;;;;0.52;0.15;;;6.90;99.90;;;;;;5030722;28;20045;-65
2022/02/06 11:28:42;;;;;;;0.63;0.00;;;6.60;99.90;;;;;;5031082;28;20112;-63
2022/02/06 11:31:08;;;;;;;2.38;0.10;;;6.50;99.90;;;;;;5030708;28;20108;-66
2022/02/06 11:33:35;;;;;;;3.40;0.45;;;6.40;99.90;;;;;;5030971;28;20034;-66
2022/02/06 11:36:09;;;;;;;0.20;0.00;;;6.40;99.90;;;;;;5030815;28;20033;-64
2022/02/06 11:45:03;;;;;;;7.85;1.08;;;6.50;99.90;;;;;;5033393;28;20048;-67
2022/02/06 11:47:38;;;;;;;4.97;0.88;;;6.60;99.90;;;;;;5058135;28;20033;-66
2022/02/06 11:50:10;;;;;;;5.35;1.00;;;6.60;99.90;;;;;;5034984;28;20037;-66
2022/02/06 11:52:56;;;;;;;7.53;0.55;;;6.60;99.90;;;;;;5034455;28;20454;-64
2022/02/06 11:55:35;;;;;;;5.70;0.60;;;6.70;99.90;;;;;;5031769;28;20033;-67
2022/02/06 11:58:31;;;;;;;7.30;1.15;;;6.80;99.90;;;;;;5033696;28;20025;-65
2022/02/06 12:01:17;;;;;;;5.18;0.50;;;6.80;99.90;;;;;;5031469;28;20092;-66
2022/02/06 12:03:53;;;;;;;6.63;1.25;;;6.90;99.90;;;;;;5028659;28;20041;-63
2022/02/06 12:06:29;;;;;;;16.08;1.02;;;7.00;99.90;;;;;;5034114;28;20056;-66
2022/02/06 12:08:58;;;;;;;7.72;1.42;;;7.00;99.90;;;;;;5033509;28;20048;-67
2022/02/06 12:11:24;;;;;;;16.13;1.58;;;7.10;99.90;;;;;;5032162;28;20034;-73
2022/02/06 12:14:13;;;;;;;3.35;0.40;;;7.20;99.90;;;;;;5031927;28;20037;-66
2022/02/06 12:16:51;;;;;;;7.72;0.75;;;7.30;99.90;;;;;;5030373;28;20046;-65
2022/02/06 12:19:33;;;;;;;9.98;0.60;;;7.40;99.90;;;;;;5032267;28;20040;-66
2022/02/06 12:22:30;;;;;;;8.88;0.98;;;7.40;99.90;;;;;;5033043;28;20091;-65
2022/02/06 12:25:19;;;;;;;4.18;0.47;;;7.50;99.90;;;;;;5032607;28;20316;-66
2022/02/06 12:27:47;;;;;;;2.72;0.50;;;7.50;99.90;;;;;;5035051;28;20033;-67
2022/02/06 12:30:21;;;;;;;2.80;0.40;;;7.60;99.90;;;;;;5034167;28;20033;-66
2022/02/06 12:32:46;;;;;;;6.43;1.33;;;7.60;99.90;;;;;;5034360;28;20543;-64
2022/02/06 12:38:02;;;;;;;8.57;0.65;;;7.60;99.90;;;;;;5034916;28;20159;-66
2022/02/06 12:40:28;;;;;;;3.38;1.02;;;7.70;99.90;;;;;;5036497;28;20029;-67
2022/02/06 12:43:04;;;;;;;14.43;1.42;;;7.80;99.90;;;;;;5033653;28;20045;-63
2022/02/06 12:45:31;;;;;;;6.28;0.90;;;7.90;99.90;;;;;;5030997;28;20421;-66
2022/02/06 12:48:07;;;;;;;2.95;0.57;;;7.80;99.90;;;;;;5032211;28;20042;-64
2022/02/06 12:50:38;;;;;;;5.53;0.77;;;7.80;99.90;;;;;;5032981;28;20041;-69
2022/02/06 12:53:05;;;;;;;;;;;7.80;99.90;;;;;;5034037;28;20033;-66
2022/02/06 12:55:33;;;;;;;5.90;1.05;;;7.90;99.90;;;;;;5032651;28;19925;-66
2022/02/06 12:58:00;;;;;;;6.68;0.50;;;8.00;99.90;;;;;;5035077;28;20045;-70
2022/02/06 13:00:48;;;;;;;4.63;0.70;;;8.00;99.90;;;;;;5032506;28;20041;-67
2022/02/06 13:03:29;;;;;;;8.13;0.85;;;8.10;99.90;;;;;;5034203;28;20048;-66
2022/02/06 13:05:57;;;;;;;6.18;0.82;;;8.10;99.90;;;;;;5032852;28;20603;-73
2022/02/06 13:08:23;;;;;;;3.92;0.47;;;8.20;99.90;;;;;;5033181;28;20088;-67
2022/02/06 13:11:01;;;;;;;7.93;0.80;;;8.30;99.90;;;;;;5027164;28;20034;-71
2022/02/06 13:13:36;;;;;;;6.07;0.95;;;8.30;99.90;;;;;;5029718;28;20037;-65
2022/02/06 13:19:06;;;;;;;7.43;0.93;;;8.40;99.90;;;;;;5028459;28;20076;-70
2022/02/06 13:21:49;;;;;;;6.15;1.05;;;8.50;99.90;;;;;;5028786;28;20128;-66
2022/02/06 13:24:31;;;;;;;5.95;0.70;;;8.70;99.90;;;;;;5026430;28;20033;-70
2022/02/06 13:27:19;;;;;;;7.18;0.90;;;8.70;99.90;;;;;;5026696;28;20041;-66
2022/02/06 13:29:57;;;;;;;9.32;1.52;;;8.80;99.90;;;;;;5025382;28;20037;-65
2022/02/06 13:35:27;;;;;;;6.35;0.70;;;8.70;99.90;;;;;;5026980;28;20418;-70
2022/02/06 13:38:00;;;;;;;8.77;1.58;;;8.60;99.90;;;;;;5028475;28;20033;-68
2022/02/06 13:40:32;;;;;;;5.97;1.00;;;8.60;99.90;;;;;;5025526;28;20131;-67
2022/02/06 13:43:13;;;;;;;7.80;0.77;;;8.60;99.90;;;;;;5035521;28;20418;-67
2022/02/06 13:45:41;;;;;;;10.77;1.70;;;8.60;99.90;;;;;;5025596;28;20124;-71
2022/02/06 13:48:09;;;;;;;13.73;1.88;;;8.70;99.90;;;;;;5029827;28;20037;-68
2022/02/06 13:50:40;;;;;;;7.90;1.38;;;8.70;99.90;;;;;;5027804;28;20040;-68
2022/02/06 13:53:10;;;;;;;2.33;0.90;;;8.70;99.90;;;;;;5030086;28;20038;-71
2022/02/06 13:55:53;;;;;;;5.68;0.80;;;8.70;99.90;;;;;;5026206;28;20049;-67
2022/02/06 13:58:22;;;;;;;8.32;1.88;;;8.70;99.90;;;;;;5027866;28;20060;-66
2022/02/06 14:01:05;;;;;;;8.43;1.48;;;8.70;99.90;;;;;;5026750;28;20041;-66
2022/02/06 14:03:41;;;;;;;5.30;0.55;;;8.70;99.90;;;;;;5032808;28;20405;-67
2022/02/06 14:06:08;;;;;;;12.75;0.75;;;8.60;99.90;;;;;;5030832;28;20033;-67
2022/02/06 14:08:36;;;;;;;8.20;1.85;;;8.60;99.90;;;;;;5028236;28;20037;-68
2022/02/06 14:11:07;;;;;;;5.60;0.80;;;8.60;99.90;;;;;;5026119;28;20390;-69
2022/02/06 14:13:33;;;;;;;1.80;0.35;;;8.70;99.90;;;;;;5024031;28;20037;-66
2022/02/06 14:16:09;;;;;;;2.92;0.40;;;8.70;99.90;;;;;;5029798;28;20041;-68
2022/02/06 14:18:46;;;;;;;3.38;0.40;;;8.70;99.90;;;;;;5026751;28;20034;-68
2022/02/06 14:21:11;;;;;;;7.57;0.75;;;8.60;99.90;;;;;;5027311;28;20041;-68
2022/02/06 14:23:37;;;;;;;2.85;0.30;;;8.50;99.90;;;;;;5035893;28;20042;-65
2022/02/06 14:26:16;;;;;;;4.47;0.65;;;8.50;99.90;;;;;;5032406;28;20068;-67
2022/02/06 14:28:49;;;;;;;5.97;0.70;;;8.40;99.90;;;;;;5055925;28;20084;-64
2022/02/06 14:31:26;;;;;;;2.22;0.98;;;8.40;99.90;;;;;;5029566;28;20030;-67
2022/02/06 14:34:12;;;;;;;10.48;0.77;;;8.30;99.90;;;;;;5026817;28;20033;-67
2022/02/06 14:36:38;;;;;;;18.90;0.98;;;8.40;99.90;;;;;;5029718;28;20048;-66
2022/02/06 14:39:03;;;;;;;5.53;0.70;;;8.50;99.90;;;;;;5025749;28;20037;-66
2022/02/06 14:41:47;;;;;;;3.17;0.50;;;8.50;99.90;;;;;;5033684;28;20042;-67
2022/02/06 14:44:13;;;;;;;2.90;0.70;;;8.60;99.90;;;;;;5027523;28;20030;-67
2022/02/06 14:46:39;;;;;;;3.38;0.40;;;8.70;99.90;;;;;;5029822;28;20033;-66
2022/02/06 14:49:07;;;;;;;5.82;0.60;;;8.70;99.90;;;;;;5026283;28;20045;-67
2022/02/06 14:51:34;;;;;;;2.55;0.65;;;8.80;99.90;;;;;;5018654;28;20073;-67
2022/02/06 14:54:02;;;;;;;3.22;0.47;;;8.80;99.90;;;;;;5026065;28;20048;-66
2022/02/06 14:56:32;;;;;;;4.55;0.57;;;8.70;99.90;;;;;;5023196;28;20033;-67
2022/02/06 14:58:59;;;;;;;2.90;0.50;;;8.70;99.90;;;;;;5024731;28;20035;-66
2022/02/06 15:01:26;;;;;;;9.68;1.10;;;8.80;99.90;;;;;;5021817;28;20037;-66
2022/02/06 15:03:51;;;;;;;10.95;2.05;;;8.90;99.90;;;;;;5021313;28;20037;-66
2022/02/06 15:06:17;;;;;;;4.57;0.32;;;8.90;99.90;;;;;;5022722;28;20410;-66
2022/02/06 15:08:43;;;;;;;3.53;0.70;;;8.90;99.90;;;;;;5023724;28;20129;-66
2022/02/06 15:11:08;;;;;;;4.78;0.30;;;8.90;99.90;;;;;;5024456;28;20129;-68
2022/02/06 15:13:34;;;;;;;5.13;0.88;;;8.90;99.90;;;;;;5020671;28;20069;-67
2022/02/06 15:16:11;;;;;;;4.43;0.55;;;8.80;99.90;;;;;;5022637;28;20040;-67
2022/02/06 15:18:39;;;;;;;10.15;0.20;;;8.80;99.90;;;;;;5018121;28;20110;-67
2022/02/06 15:21:07;;;;;;;3.28;0.50;;;8.80;99.90;;;;;;5022598;28;20053;-66
2022/02/06 15:23:33;;;;;;;6.72;0.57;;;8.70;99.90;;;;;;5017783;28;20569;-67